Time;durP1;ratioP1;P1;durP2;ratioP2;P2;SDS_P1;SDS_P2;PMS_P1;PMS_P2;Temp;Humidity;BMP_temperature;BMP_pressure;BME280_temperature;BME280_humidity;BME280_pressure;Samples;Min_cycle;Max_cycle;Signal;HPM_P1;HPM_P2
2023/01/13 00:00:42;;;;;;;;;;;;;;;-144.47;100.00;61586.06;4907376;28;20002;-77
2023/01/13 00:03:07;;;;;;;;;;;;;;;-144.47;100.00;61586.06;4905090;28;19973;-78
2023/01/13 00:05:33;;;;;;;;;;;;;;;-144.47;100.00;61586.06;4906254;29;19930;-81
2023/01/13 00:07:58;;;;;;;;;;;;;;;-144.47;100.00;61586.06;4901640;28;19927;-80
2023/01/13 00:10:24;;;;;;;;;;;;;;;-144.47;100.00;61586.06;4907206;29;20428;-82
2023/01/13 00:12:52;;;;;;;;;;;;;;;-144.47;100.00;61586.06;4923350;28;19930;-84
2023/01/13 00:15:17;;;;;;;;;;;;;;;-144.47;100.00;61586.06;4907031;28;20312;-84
2023/01/13 00:17:42;;;;;;;;;;;;;;;-144.47;100.00;61586.06;4908643;29;19919;-82
2023/01/13 00:20:08;;;;;;;;;;;;;;;-144.47;100.00;61586.06;4907697;28;19919;-81
2023/01/13 00:22:34;;;;;;;;;;;;;;;-144.47;100.00;61586.06;4908534;28;19923;-84
2023/01/13 00:25:00;;;;;;;;;;;;;;;-144.47;100.00;61586.06;4907787;29;19923;-83
2023/01/13 00:27:26;;;;;;;;;;;;;;;-144.47;100.00;61586.06;4910917;28;20011;-84
2023/01/13 00:29:51;;;;;;;;;;;;;;;-144.47;100.00;61586.06;4912682;28;19920;-83
2023/01/13 00:32:17;;;;;;;;;;;;;;;-144.47;100.00;61586.06;4924785;28;19915;-84
2023/01/13 00:34:42;;;;;;;;;;;;;;;-144.47;100.00;61586.06;4906182;28;19920;-83
2023/01/13 00:37:11;;;;;;;;;;;;;;;-144.47;100.00;61586.06;4914245;28;20386;-84
2023/01/13 00:39:37;;;;;;;;;;;;;;;-144.47;100.00;61586.06;4913113;28;19919;-83
2023/01/13 00:44:46;;;;;;;;;;;;;;;-144.47;100.00;61586.06;4912272;28;19978;-83
2023/01/13 00:47:12;;;;;;;;;;;;;;;-144.47;100.00;61586.06;4908393;29;20001;-82
2023/01/13 00:49:37;;;;;;;;;;;;;;;-144.47;100.00;61586.06;4910180;28;19974;-82
2023/01/13 00:52:02;;;;;;;;;;;;;;;-144.47;100.00;61586.06;4914607;28;19919;-83
2023/01/13 00:54:28;;;;;;;;;;;;;;;-144.47;100.00;61586.06;4912228;28;19929;-83
2023/01/13 00:56:53;;;;;;;;;;;;;;;-144.47;100.00;61586.06;4911456;29;19919;-81
2023/01/13 00:59:19;;;;;;;;;;;;;;;-144.47;100.00;61586.06;4907802;28;19934;-81
2023/01/13 01:01:44;;;;;;;;;;;;;;;-144.47;100.00;61586.06;4908616;29;20379;-82
2023/01/13 01:04:10;;;;;;;;;;;;;;;-144.47;100.00;61586.06;4910471;28;19923;-80
2023/01/13 01:06:36;;;;;;;;;;;;;;;-144.47;100.00;61586.06;4930709;28;20284;-83
2023/01/13 01:09:02;;;;;;;;;;;;;;;-144.47;100.00;61586.06;4915375;28;20429;-81
2023/01/13 01:11:29;;;;;;;;;;;;;;;-144.47;100.00;61586.06;4911876;29;19919;-82
2023/01/13 01:13:55;;;;;;;;;;;;;;;-144.47;100.00;61586.06;4910631;28;19926;-81
2023/01/13 01:16:21;;;;;;;;;;;;;;;-144.47;100.00;61586.06;4913270;28;19927;-82
2023/01/13 01:18:50;;;;;;;;;;;;;;;-144.47;100.00;61586.06;4910798;28;19919;-84
2023/01/13 01:21:20;;;;;;;;;;;;;;;-144.47;100.00;61586.06;4911585;29;20356;-85
2023/01/13 01:23:46;;;;;;;;;;;;;;;-144.47;100.00;61586.06;4909000;28;20395;-83
2023/01/13 01:26:11;;;;;;;;;;;;;;;-144.47;100.00;61586.06;4908087;28;19942;-83
2023/01/13 01:28:38;;;;;;;;;;;;;;;-144.47;100.00;61586.06;4912592;29;19943;-82
2023/01/13 01:31:15;;;;;;;;;;;;;;;-144.47;100.00;61586.06;4910380;29;20269;-83
2023/01/13 01:33:41;;;;;;;;;;;;;;;-144.47;100.00;61586.06;4913871;28;20366;-83
2023/01/13 01:36:07;;;;;;;;;;;;;;;-144.47;100.00;61586.06;4908616;28;19962;-83
2023/01/13 01:38:32;;;;;;;;;;;;;;;-144.47;100.00;61586.06;4913157;28;19947;-83
2023/01/13 01:40:58;;;;;;;;;;;;;;;-144.47;100.00;61586.06;4907936;29;19926;-83
2023/01/13 01:43:58;;;;;;;;;;;;;;;-144.47;100.00;61586.06;4912448;29;19926;-82
2023/01/13 01:46:43;;;;;;;;;;;;;;;-144.47;100.00;61586.06;4913726;28;19991;-81
2023/01/13 01:49:11;;;;;;;;;;;;;;;-144.47;100.00;61586.06;4911878;28;19926;-82
2023/01/13 01:51:55;;;;;;;;;;;;;;;-144.47;100.00;61586.06;4907762;29;20325;-83
2023/01/13 01:54:43;;;;;;;;;;;;;;;-144.47;100.00;61586.06;4924196;28;19923;-83
2023/01/13 01:57:11;;;;;;;;;;;;;;;-144.47;100.00;61586.06;4906930;28;19954;-83
2023/01/13 01:59:37;;;;;;;;;;;;;;;-144.47;100.00;61586.06;4903974;28;19922;-83
2023/01/13 02:02:05;;;;;;;;;;;;;;;-144.47;100.00;61586.06;4926484;28;19950;-83
2023/01/13 02:04:32;;;;;;;;;;;;;;;-144.47;100.00;61586.06;4915003;28;19957;-83
2023/01/13 02:06:59;;;;;;;;;;;;;;;-144.47;100.00;61586.06;4902806;28;20295;-83
2023/01/13 02:09:25;;;;;;;;;;;;;;;-144.47;100.00;61586.06;4910925;28;19926;-82
2023/01/13 02:14:36;;;;;;;;;;;;;;;-144.47;100.00;61586.06;4907110;28;19925;-83
2023/01/13 02:17:04;;;;;;;;;;;;;;;-144.47;100.00;61586.06;4912150;28;19926;-82
2023/01/13 02:19:30;;;;;;;;;;;;;;;-144.47;100.00;61586.06;4905359;29;20288;-82
2023/01/13 02:22:13;;;;;;;;;;;;;;;-144.47;100.00;61586.06;4908131;29;20321;-82
2023/01/13 02:24:57;;;;;;;;;;;;;;;-144.47;100.00;61586.06;4903656;29;19915;-83
2023/01/13 02:27:23;;;;;;;;;;;;;;;-144.47;100.00;61586.06;4928493;28;19920;-82
2023/01/13 02:33:18;;;;;;;;;;;;;;;-144.47;100.00;61586.06;4906565;29;19920;-82
2023/01/13 02:35:46;;;;;;;;;;;;;;;-144.47;100.00;61586.06;4919589;28;19962;-82
2023/01/13 02:38:14;;;;;;;;;;;;;;;-144.47;100.00;61586.06;4909815;28;20267;-82
2023/01/13 02:40:42;;;;;;;;;;;;;;;-144.47;100.00;61586.06;4907081;29;19923;-82
2023/01/13 02:46:22;;;;;;;;;;;;;;;-144.47;100.00;61586.06;4917660;28;20300;-82
2023/01/13 02:48:50;;;;;;;;;;;;;;;-144.47;100.00;61586.06;4917800;29;19978;-81
2023/01/13 02:51:18;;;;;;;;;;;;;;;-144.47;100.00;61586.06;4917553;28;19915;-82
2023/01/13 02:53:55;;;;;;;58.25;36.78;;;;;;;-144.47;100.00;61586.06;4916051;29;20291;-81
2023/01/13 02:56:23;;;;;;;58.42;35.22;;;;;;;-144.47;100.00;61586.06;4917955;29;20040;-82
2023/01/13 02:58:50;;;;;;;57.42;37.13;;;;;;;-144.47;100.00;61586.06;4913823;29;20503;-81
2023/01/13 03:01:16;;;;;;;;;;;;;;;-144.47;100.00;61586.06;4917959;28;20373;-81
2023/01/13 03:03:43;;;;;;;53.20;33.30;;;;;;;-144.47;100.00;61586.06;4913462;28;19991;-82
2023/01/13 03:06:08;;;;;;;58.25;36.35;;;;;;;-144.47;100.00;61586.06;4917425;28;20036;-82
2023/01/13 03:09:03;;;;;;;55.15;35.35;;;;;;;-144.47;100.00;61586.06;4915413;28;20043;-82
2023/01/13 03:11:42;;;;;;;53.53;34.95;;;;;;;-144.47;100.00;61586.06;4931546;29;20044;-82
2023/01/13 03:14:34;;;;;;;54.63;34.65;;;;;;;-144.47;100.00;61586.06;4935689;28;20044;-83
2023/01/13 03:17:30;;;;;;;55.92;33.47;;;;;;;-144.47;100.00;61586.06;4918712;28;20087;-83
2023/01/13 03:20:07;;;;;;;53.85;36.60;;;;;;;-144.47;100.00;61586.06;4919374;29;20047;-83
2023/01/13 03:22:43;;;;;;;55.92;33.95;;;;;;;-144.47;100.00;61586.06;4922548;29;20036;-84
2023/01/13 03:25:49;;;;;;;51.97;33.50;;;;;;;-144.47;100.00;61586.06;4917365;28;20024;-83
2023/01/13 03:28:26;;;;;;;53.13;34.45;;;;;;;-144.47;100.00;61586.06;4915095;29;20029;-83
2023/01/13 03:30:58;;;;;;;55.50;34.35;;;;;;;-144.47;100.00;61586.06;4929973;29;20036;-83
2023/01/13 03:33:40;;;;;;;57.47;35.75;;;;;;;-144.47;100.00;61586.06;4912740;28;20043;-81
2023/01/13 03:36:10;;;;;;;62.03;36.67;;;;;;;-144.47;100.00;61586.06;4916819;28;20025;-82
2023/01/13 03:38:44;;;;;;;55.47;35.58;;;;;;;-144.47;100.00;61586.06;4914300;29;20029;-81
2023/01/13 03:41:20;;;;;;;54.55;33.35;;;;;;;-144.47;100.00;61586.06;4915297;28;20385;-81
2023/01/13 03:44:22;;;;;;;54.08;32.90;;;;;;;-144.47;100.00;61586.06;4911874;29;20047;-80
2023/01/13 03:47:17;;;;;;;56.58;34.30;;;;;;;-144.47;100.00;61586.06;4915897;28;20149;-82
2023/01/13 03:50:20;;;;;;;56.30;34.40;;;;;;;-144.47;100.00;61586.06;4917682;28;20040;-82
2023/01/13 03:52:54;;;;;;;51.78;33.60;;;;;;;-144.47;100.00;61586.06;4976209;28;20074;-82
2023/01/13 03:55:26;;;;;;;55.05;31.75;;;;;;;-144.47;100.00;61586.06;4959868;28;20034;-81
2023/01/13 03:58:01;;;;;;;53.38;33.30;;;;;;;-144.47;100.00;61586.06;4973158;28;20035;-81
2023/01/13 04:00:34;;;;;;;53.13;31.90;;;;;;;-144.47;100.00;61586.06;4973316;28;20050;-82
2023/01/13 04:03:10;;;;;;;;;;;;;;;-144.47;100.00;61586.06;4972688;28;19925;-82
2023/01/13 04:05:38;;;;;;;;;;;;;;;-144.47;100.00;61586.06;4970090;28;19918;-82
2023/01/13 04:08:07;;;;;;;;;;;;;;;-144.47;100.00;61586.06;4980436;28;19918;-84
2023/01/13 04:10:38;;;;;;;;;;;;;;;-144.47;100.00;61586.06;4978118;28;19918;-83
2023/01/13 04:13:06;;;;;;;;;;;;;;;-144.47;100.00;61586.06;4977166;28;19902;-83
2023/01/13 04:15:36;;;;;;;;;;;;;;;-144.47;100.00;61586.06;4978403;28;19918;-82
2023/01/13 04:18:09;;;;;;;;;;;;;;;-144.47;100.00;61586.06;4978824;28;20040;-82
2023/01/13 04:20:34;;;;;;;;;;;;;;;-144.47;100.00;61586.06;4978681;28;19981;-83
2023/01/13 04:23:00;;;;;;;;;;;;;;;-144.47;100.00;61586.06;4963881;28;20384;-83
2023/01/13 04:25:25;;;;;;;;;;;;;;;-144.47;100.00;61586.06;4931248;28;20010;-83
2023/01/13 04:27:51;;;;;;;;;;;;;;;-144.47;100.00;61586.06;4930431;29;19942;-80
2023/01/13 04:30:16;;;;;;;;;;;;;;;-144.47;100.00;61586.06;4921767;28;20024;-83
2023/01/13 04:32:42;;;;;;;;;;;;;;;-144.47;100.00;61586.06;4910934;28;19927;-81
2023/01/13 04:35:07;;;;;;;;;;;;;;;-144.47;100.00;61586.06;4911522;29;19918;-81
2023/01/13 04:37:33;;;;;;;;;;;;;;;-144.47;100.00;61586.06;4909276;29;19955;-81
2023/01/13 04:39:58;;;;;;;;;;;;;;;-144.47;100.00;61586.06;4910668;28;19922;-81
2023/01/13 04:42:24;;;;;;;;;;;;;;;-144.47;100.00;61586.06;4927981;29;19934;-81
2023/01/13 04:44:49;;;;;;;;;;;;;;;-144.47;100.00;61586.06;4910923;29;19958;-81
2023/01/13 04:47:14;;;;;;;;;;;;;;;-144.47;100.00;61586.06;4907850;28;19923;-81
2023/01/13 04:49:40;;;;;;;;;;;;;;;-144.47;100.00;61586.06;4908631;29;19923;-82
2023/01/13 04:52:05;;;;;;;;;;;;;;;-144.47;100.00;61586.06;4904814;29;19942;-83
2023/01/13 04:54:31;;;;;;;;;;;;;;;-144.47;100.00;61586.06;4911260;28;19920;-81
2023/01/13 04:56:56;;;;;;;;;;;;;;;-144.47;100.00;61586.06;4909637;28;19923;-82
2023/01/13 04:59:22;;;;;;;;;;;;;;;-144.47;100.00;61586.06;4911151;28;19919;-79
2023/01/13 05:01:47;;;;;;;;;;;;;;;-144.47;100.00;61586.06;4911714;29;19919;-81
2023/01/13 05:04:14;;;;;;;;;;;;;;;-144.47;100.00;61586.06;4925560;28;19923;-83
2023/01/13 05:06:40;;;;;;;;;;;;;;;-144.47;100.00;61586.06;4909783;28;19919;-83
2023/01/13 05:09:05;;;;;;;;;;;;;;;-144.47;100.00;61586.06;4910033;28;19919;-82
2023/01/13 05:17:02;;;;;;;;;;;;;;;-144.47;100.00;61586.06;4908929;28;19923;-82
2023/01/13 05:19:28;;;;;;;;;;;;;;;-144.47;100.00;61586.06;4909042;29;19942;-82
2023/01/13 05:27:22;;;;;;;;;;;;;;;-144.47;100.00;61586.06;4905723;28;19959;-82
2023/01/13 05:29:47;;;;;;;;;;;;;;;-144.47;100.00;61586.06;4906953;28;19986;-82
2023/01/13 05:32:13;;;;;;;;;;;;;;;-144.47;100.00;61586.06;4910347;28;19926;-82
2023/01/13 05:34:38;;;;;;;;;;;;;;;-144.47;100.00;61586.06;4907342;28;19919;-81
2023/01/13 05:37:06;;;;;;;;;;;;;;;-144.47;100.00;61586.06;4910859;28;19919;-80
2023/01/13 05:43:18;;;;;;;;;;;;;;;-144.47;100.00;61586.06;4906268;29;19965;-79
2023/01/13 05:45:01;;;;;;;;;;;;;;;-144.47;100.00;61586.06;4914538;28;19930;-84
2023/01/13 05:47:26;;;;;;;;;;;;;;;-144.47;100.00;61586.06;4905747;28;19919;-84
2023/01/13 05:49:52;;;;;;;;;;;;;;;-144.47;100.00;61586.06;4908456;28;20015;-83
2023/01/13 05:52:17;;;;;;;;;;;;;;;-144.47;100.00;61586.06;4906581;29;19923;-83
2023/01/13 05:54:43;;;;;;;;;;;;;;;-144.47;100.00;61586.06;4909200;28;19915;-82
2023/01/13 05:57:08;;;;;;;;;;;;;;;-144.47;100.00;61586.06;4906755;29;19919;-80
2023/01/13 05:59:34;;;;;;;;;;;;;;;-144.47;100.00;61586.06;4912149;28;20028;-82
2023/01/13 06:01:59;;;;;;;;;;;;;;;-144.47;100.00;61586.06;4907517;29;19919;-84
2023/01/13 06:04:24;;;;;;;;;;;;;;;-144.47;100.00;61586.06;4908686;28;19919;-81
2023/01/13 06:06:50;;;;;;;;;;;;;;;-144.47;100.00;61586.06;4909164;29;19954;-82
2023/01/13 06:09:15;;;;;;;;;;;;;;;-144.47;100.00;61586.06;4910500;28;19926;-82
2023/01/13 06:11:41;;;;;;;;;;;;;;;-144.47;100.00;61586.06;4908287;28;19954;-82
2023/01/13 06:14:06;;;;;;;;;;;;;;;-144.47;100.00;61586.06;4909866;28;19923;-79
2023/01/13 06:16:32;;;;;;;;;;;;;;;-144.47;100.00;61586.06;4909205;28;19919;-80
2023/01/13 06:18:57;;;;;;;;;;;;;;;-144.47;100.00;61586.06;4923043;29;19923;-81
2023/01/13 06:21:23;;;;;;;;;;;;;;;-144.47;100.00;61586.06;4905574;29;19926;-80
2023/01/13 06:23:48;;;;;;;;;;;;;;;-144.47;100.00;61586.06;4909439;29;19919;-82
2023/01/13 06:26:16;;;;;;;;;;;;;;;-144.47;100.00;61586.06;4905519;28;19919;-79
2023/01/13 06:28:41;;;;;;;;;;;;;;;-144.47;100.00;61586.06;4903392;28;20111;-75
2023/01/13 06:31:08;;;;;;;;;;;;;;;-144.47;100.00;61586.06;4912293;28;19923;-76
2023/01/13 06:33:39;;;;;;;;;;;;;;;-144.47;100.00;61586.06;4902066;29;20013;-76
2023/01/13 06:36:12;;;;;;;;;;;;;;;-144.47;100.00;61586.06;4906567;28;19920;-77
2023/01/13 06:38:39;;;;;;;;;;;;;;;-144.47;100.00;61586.06;4907065;28;19923;-73
2023/01/13 06:41:06;;;;;;;;;;;;;;;-144.47;100.00;61586.06;4917911;28;20047;-74
2023/01/13 06:43:31;;;;;;;;;;;;;;;-144.47;100.00;61586.06;4904618;28;20371;-75
2023/01/13 06:45:56;;;;;;;;;;;;;;;-144.47;100.00;61586.06;4906670;29;19925;-75
2023/01/13 06:48:24;;;;;;;;;;;;;;;-144.47;100.00;61586.06;4907456;28;19919;-75
2023/01/13 06:50:50;;;;;;;;;;;;;;;-144.47;100.00;61586.06;4905215;29;20371;-76
2023/01/13 06:53:15;;;;;;;;;;;;;;;-144.47;100.00;61586.06;4921693;28;19925;-75
2023/01/13 06:55:40;;;;;;;;;;;;;;;-144.47;100.00;61586.06;4929936;28;19933;-78
2023/01/13 06:58:06;;;;;;;;;;;;;;;-144.47;100.00;61586.06;4887465;28;19970;-77
2023/01/13 07:00:35;;;;;;;;;;;;;;;-144.47;100.00;61586.06;4904223;28;19919;-78
2023/01/13 07:03:14;;;;;;;;;;;;;;;-144.47;100.00;61586.06;4898034;28;20669;-74
2023/01/13 07:05:40;;;;;;;;;;;;;;;-144.47;100.00;61586.06;4901931;28;19926;-76
2023/01/13 07:08:06;;;;;;;;;;;;;;;-144.47;100.00;61586.06;4904708;28;19926;-77
2023/01/13 07:10:31;;;;;;;;;;;;;;;-144.47;100.00;61586.06;4906129;29;19919;-76
2023/01/13 07:15:51;;;;;;;;;;;;;;;-144.47;100.00;61586.06;4907845;28;20401;-76
2023/01/13 07:18:16;;;;;;;;;;;;;;;-144.47;100.00;61586.06;4905163;29;20356;-78
2023/01/13 07:20:41;;;;;;;;;;;;;;;-144.47;100.00;61586.06;4908335;29;20006;-76
2023/01/13 07:23:07;;;;;;;;;;;;;;;-144.47;100.00;61586.06;4906791;28;19923;-76
2023/01/13 07:25:32;;;;;;;;;;;;;;;-144.47;100.00;61586.06;4908856;28;19973;-77
2023/01/13 07:27:58;;;;;;;;;;;;;;;-144.47;100.00;61586.06;4904430;29;19939;-78
2023/01/13 07:30:23;;;;;;;;;;;;;;;-144.47;100.00;61586.06;4907996;29;19919;-78
2023/01/13 07:32:49;;;;;;;;;;;;;;;-144.47;100.00;61586.06;4904294;29;19959;-78
2023/01/13 07:35:14;;;;;;;;;;;;;;;-144.47;100.00;61586.06;4908882;28;19918;-78
2023/01/13 07:37:40;;;;;;;;;;;;;;;-144.47;100.00;61586.06;4904601;29;19927;-78
2023/01/13 07:40:08;;;;;;;;;;;;;;;-144.47;100.00;61586.06;4905129;28;19927;-77
2023/01/13 07:45:20;;;;;;;;;;;;;;;-144.47;100.00;61586.06;4912213;28;19915;-76
2023/01/13 07:47:49;;;;;;;;;;;;;;;-144.47;100.00;61586.06;4905254;28;19923;-77
2023/01/13 07:50:14;;;;;;;;;;;;;;;-144.47;100.00;61586.06;4908707;29;20449;-78
2023/01/13 07:52:40;;;;;;;;;;;;;;;-144.47;100.00;61586.06;4909118;28;20017;-77
2023/01/13 07:55:05;;;;;;;;;;;;;;;-144.47;100.00;61586.06;4912847;28;19959;-78
2023/01/13 07:57:31;;;;;;;;;;;;;;;-144.47;100.00;61586.06;4909218;28;19969;-77
2023/01/13 07:59:56;;;;;;;;;;;;;;;-144.47;100.00;61586.06;4944991;28;20357;-77
2023/01/13 08:02:21;;;;;;;;;;;;;;;-144.47;100.00;61586.06;4906129;29;20328;-76
2023/01/13 08:04:47;;;;;;;;;;;;;;;-144.47;100.00;61586.06;4904767;29;19919;-77
2023/01/13 08:07:12;;;;;;;;;;;;;;;-144.47;100.00;61586.06;4918583;29;19919;-77
2023/01/13 08:09:38;;;;;;;;;;;;;;;-144.47;100.00;61586.06;4905108;28;19918;-78
2023/01/13 08:14:49;;;;;;;;;;;;;;;-144.47;100.00;61586.06;4908595;29;20503;-77
2023/01/13 08:17:14;;;;;;;;;;;;;;;-144.47;100.00;61586.06;4914556;29;19938;-79
2023/01/13 08:19:39;;;;;;;;;;;;;;;-144.47;100.00;61586.06;4930860;28;19919;-79
2023/01/13 08:22:05;;;;;;;;;;;;;;;-144.47;100.00;61586.06;4909157;29;19987;-78
2023/01/13 08:24:30;;;;;;;;;;;;;;;-144.47;100.00;61586.06;4912972;28;19934;-80
2023/01/13 08:26:56;;;;;;;;;;;;;;;-144.47;100.00;61586.06;4918092;29;19923;-76
2023/01/13 08:29:21;;;;;;;;;;;;;;;-144.47;100.00;61586.06;4915463;29;19920;-77
2023/01/13 08:31:46;;;;;;;;;;;;;;;-144.47;100.00;61586.06;4917302;29;19919;-78
2023/01/13 08:34:12;;;;;;;;;;;;;;;-144.47;100.00;61586.06;4932846;28;19919;-78
2023/01/13 08:36:37;;;;;;;;;;;;;;;-144.47;100.00;61586.06;4920449;28;19919;-79
2023/01/13 08:39:03;;;;;;;;;;;;;;;-144.47;100.00;61586.06;4921500;28;19922;-79
2023/01/13 08:44:12;;;;;;;;;;;;;;;-144.47;100.00;61586.06;4914812;28;19919;-79
2023/01/13 08:46:38;;;;;;;;;;;;;;;-144.47;100.00;61586.06;4915377;29;19945;-78
2023/01/13 08:49:03;;;;;;;;;;;;;;;-144.47;100.00;61586.06;4929016;28;19920;-78
2023/01/13 08:51:29;;;;;;;;;;;;;;;-144.47;100.00;61586.06;4917768;28;20058;-78
2023/01/13 08:53:55;;;;;;;;;;;;;;;-144.47;100.00;61586.06;4919159;28;19919;-77
2023/01/13 08:56:20;;;;;;;;;;;;;;;-144.47;100.00;61586.06;4915117;29;19930;-78
2023/01/13 08:58:46;;;;;;;;;;;;;;;-144.47;100.00;61586.06;4909319;29;19927;-78
2023/01/13 09:01:18;;;;;;;;;;;;;;;-144.47;100.00;61586.06;4910570;29;19950;-78
2023/01/13 09:03:44;;;;;;;;;;;;;;;-144.47;100.00;61586.06;4907930;29;20525;-78
2023/01/13 09:06:09;;;;;;;;;;;;;;;-144.47;100.00;61586.06;4911343;29;19919;-77
2023/01/13 09:08:34;;;;;;;;;;;;;;;-144.47;100.00;61586.06;4905178;29;20256;-79
2023/01/13 09:11:00;;;;;;;;;;;;;;;-144.47;100.00;61586.06;4911552;29;20010;-78
2023/01/13 09:13:25;;;;;;;;;;;;;;;-144.47;100.00;61586.06;4910753;29;19981;-78
2023/01/13 09:15:54;;;;;;;;;;;;;;;-144.47;100.00;61586.06;4911629;29;19923;-78
2023/01/13 09:18:20;;;;;;;;;;;;;;;-144.47;100.00;61586.06;4907542;28;20018;-78
2023/01/13 09:20:51;;;;;;;;;;;;;;;-144.47;100.00;61586.06;4912831;28;19944;-82
2023/01/13 09:23:20;;;;;;;;;;;;;;;-144.47;100.00;61586.06;4916920;28;20330;-82
2023/01/13 09:25:45;;;;;;;;;;;;;;;-144.47;100.00;61586.06;4905082;29;19919;-78
2023/01/13 09:28:11;;;;;;;;;;;;;;;-144.47;100.00;61586.06;4908826;28;20005;-78
2023/01/13 09:30:37;;;;;;;;;;;;;;;-144.47;100.00;61586.06;4909424;29;19926;-79
2023/01/13 09:35:46;;;;;;;;;;;;;;;-144.47;100.00;61586.06;4910014;28;20290;-80
2023/01/13 09:38:11;;;;;;;;;;;;;;;-144.47;100.00;61586.06;4909545;29;19919;-80
2023/01/13 09:40:38;;;;;;;;;;;;;;;-144.47;100.00;61586.06;4906802;28;19954;-80
2023/01/13 09:46:04;;;;;;;;;;;;;;;-144.47;100.00;61586.06;4908493;28;20272;-81
2023/01/13 09:48:50;;;;;;;;;;;;;;;-144.47;100.00;61586.06;4903817;29;19950;-80
2023/01/13 09:51:20;;;;;;;;;;;;;;;-144.47;100.00;61586.06;4909936;29;19919;-77
2023/01/13 09:54:09;;;;;;;;;;;;;;;-144.47;100.00;61586.06;4913657;28;20290;-80
2023/01/13 09:56:34;;;;;;;;;;;;;;;-144.47;100.00;61586.06;4914499;28;20288;-79
2023/01/13 09:59:00;;;;;;;;;;;;;;;-144.47;100.00;61586.06;4905917;28;19919;-78
2023/01/13 10:01:28;;;;;;;;;;;;;;;-144.47;100.00;61586.06;4904296;29;19970;-79
2023/01/13 10:03:54;;;;;;;;;;;;;;;-144.47;100.00;61586.06;4909400;29;20016;-81
2023/01/13 10:06:22;;;;;;;;;;;;;;;-144.47;100.00;61586.06;4906929;28;19975;-79
2023/01/13 10:08:48;;;;;;;;;;;;;;;-144.47;100.00;61586.06;4911556;28;19962;-80
2023/01/13 10:14:10;;;;;;;;;;;;;;;-144.47;100.00;61586.06;4907686;28;19919;-80
2023/01/13 10:16:41;;;;;;;;;;;;;;;-144.47;100.00;61586.06;4913801;28;19916;-82
2023/01/13 10:19:09;;;;;;;;;;;;;;;-144.47;100.00;61586.06;4914071;28;19966;-82
2023/01/13 10:21:53;;;;;;;;;;;;;;;-144.47;100.00;61586.06;4906793;29;20018;-81
2023/01/13 10:24:18;;;;;;;;;;;;;;;-144.47;100.00;61586.06;4907442;28;19952;-79
2023/01/13 10:27:13;;;;;;;;;;;;;;;-144.47;100.00;61586.06;4904139;28;19919;-80
2023/01/13 10:29:38;;;;;;;;;;;;;;;-144.47;100.00;61586.06;4917626;28;19942;-80
2023/01/13 10:32:04;;;;;;;;;;;;;;;-144.47;100.00;61586.06;4910197;28;19919;-80
2023/01/13 10:34:29;;;;;;;;;;;;;;;-144.47;100.00;61586.06;4907411;28;19927;-78
2023/01/13 10:37:05;;;;;;;;;;;;;;;-144.47;100.00;61586.06;4908750;29;19919;-80
2023/01/13 10:39:39;;;;;;;;;;;;;;;-144.47;100.00;61586.06;4905051;29;21317;-80
2023/01/13 10:42:05;;;;;;;;;;;;;;;-144.47;100.00;61586.06;4924309;28;19923;-79
2023/01/13 10:44:30;;;;;;;;;;;;;;;-144.47;100.00;61586.06;4926184;29;19923;-77
2023/01/13 10:46:57;;;;;;;;;;;;;;;-144.47;100.00;61586.06;4908916;28;19930;-77
2023/01/13 10:49:29;;;;;;;;;;;;;;;-144.47;100.00;61586.06;4908637;28;19919;-78
2023/01/13 10:51:55;;;;;;;;;;;;;;;-144.47;100.00;61586.06;4914002;29;19929;-78
2023/01/13 10:54:22;;;;;;;;;;;;;;;-144.47;100.00;61586.06;4908640;28;19923;-77
2023/01/13 10:56:47;;;;;;;;;;;;;;;-144.47;100.00;61586.06;4911841;28;19977;-79
2023/01/13 10:59:21;;;;;;;;;;;;;;;-144.47;100.00;61586.06;4906269;29;19923;-77
2023/01/13 11:02:05;;;;;;;;;;;;;;;-144.47;100.00;61586.06;4904853;29;19919;-77
2023/01/13 11:04:33;;;;;;;;;;;;;;;-144.47;100.00;61586.06;4911472;29;19957;-76
2023/01/13 11:06:59;;;;;;;;;;;;;;;-144.47;100.00;61586.06;4920344;28;19931;-76
2023/01/13 11:09:26;;;;;;;;;;;;;;;-144.47;100.00;61586.06;4911010;28;20018;-76
2023/01/13 11:11:54;;;;;;;;;;;;;;;-144.47;100.00;61586.06;4905902;29;19923;-76
2023/01/13 11:14:31;;;;;;;;;;;;;;;-144.47;100.00;61586.06;4910294;29;19922;-76
2023/01/13 11:16:59;;;;;;;;;;;;;;;-144.47;100.00;61586.06;4929054;29;19927;-77
2023/01/13 11:19:26;;;;;;;;;;;;;;;-144.47;100.00;61586.06;4926169;28;19919;-76
2023/01/13 11:21:55;;;;;;;;;;;;;;;-144.47;100.00;61586.06;4910774;28;19942;-76
2023/01/13 11:24:38;;;;;;;;;;;;;;;-144.47;100.00;61586.06;4909040;29;19923;-76
2023/01/13 11:27:16;;;;;;;;;;;;;;;-144.47;100.00;61586.06;4912113;28;19930;-79
2023/01/13 11:30:02;;;;;;;;;;;;;;;-144.47;100.00;61586.06;4911064;28;19983;-77
2023/01/13 11:32:30;;;;;;;;;;;;;;;-144.47;100.00;61586.06;4922198;28;20378;-79
2023/01/13 11:34:59;;;;;;;;;;;;;;;-144.47;100.00;61586.06;4907390;28;19946;-78
2023/01/13 11:37:31;;;;;;;;;;;;;;;-144.47;100.00;61586.06;4901953;29;19923;-77
2023/01/13 11:40:04;;;;;;;;;;;;;;;-144.47;100.00;61586.06;4904812;28;19974;-79
2023/01/13 11:42:36;;;;;;;;;;;;;;;-144.47;100.00;61586.06;4906983;29;19919;-80
2023/01/13 11:45:03;;;;;;;;;;;;;;;-144.47;100.00;61586.06;4913104;29;19990;-79
2023/01/13 11:47:30;;;;;;;;;;;;;;;-144.47;100.00;61586.06;4920923;28;19943;-80
2023/01/13 11:49:55;;;;;;;;;;;;;;;-144.47;100.00;61586.06;4934770;28;20294;-81
2023/01/13 11:52:30;;;;;;;;;;;;;;;-144.47;100.00;61586.06;4909038;29;19923;-80
2023/01/13 11:54:55;;;;;;;;;;;;;;;-144.47;100.00;61586.06;4911699;28;19923;-81
2023/01/13 11:57:30;;;;;;;;;;;;;;;-144.47;100.00;61586.06;4929140;28;19915;-79
2023/01/13 12:00:26;;;;;;;;;;;;;;;-144.47;100.00;61586.06;4907573;29;19970;-80
2023/01/13 12:02:56;;;;;;;;;;;;;;;-144.47;100.00;61586.06;4909068;28;19994;-80
2023/01/13 12:05:31;;;;;;;;;;;;;;;-144.47;100.00;61586.06;4907720;28;19916;-80
2023/01/13 12:08:02;;;;;;;;;;;;;;;-144.47;100.00;61586.06;4907195;28;19923;-79
2023/01/13 12:10:34;;;;;;;;;;;;;;;-144.47;100.00;61586.06;4908864;29;19973;-80
2023/01/13 12:13:19;;;;;;;;;;;;;;;-144.47;100.00;61586.06;4905335;29;20303;-82
2023/01/13 12:15:54;;;;;;;;;;;;;;;-144.47;100.00;61586.06;4907128;29;20326;-81
2023/01/13 12:18:55;;;;;;;;;;;;;;;-144.47;100.00;61586.06;4903779;29;19927;-80
2023/01/13 12:21:22;;;;;;;;;;;;;;;-144.47;100.00;61586.06;4986294;28;20062;-81
2023/01/13 12:23:59;;;;;;;;;;;;;;;-144.47;100.00;61586.06;4923952;28;20391;-81
2023/01/13 12:26:28;;;;;;;;;;;;;;;-144.47;100.00;61586.06;4922995;28;19984;-82
2023/01/13 12:29:11;;;;;;;;;;;;;;;-144.47;100.00;61586.06;4910559;28;20295;-82
2023/01/13 12:31:37;;;;;;;;;;;;;;;-144.47;100.00;61586.06;4907837;28;20070;-80
2023/01/13 12:34:28;;;;;;;46.30;31.75;;;;;;;-144.47;100.00;61586.06;4906491;28;20318;-80
2023/01/13 12:37:11;;;;;;;47.90;30.73;;;;;;;-144.47;100.00;61586.06;4909631;29;20048;-82
2023/01/13 12:39:55;;;;;;;49.08;30.45;;;;;;;-144.47;100.00;61586.06;4913538;28;20051;-79
2023/01/13 12:45:28;;;;;;;;;;;;;;;-144.47;100.00;61586.06;4911045;29;20040;-81
2023/01/13 12:48:38;;;;;;;;;;;;;;;-144.47;100.00;61586.06;4912144;29;19942;-81
2023/01/13 12:51:19;;;;;;;;;;;;;;;-144.47;100.00;61586.06;4916000;28;20017;-81
2023/01/13 12:53:45;;;;;;;;;;;;;;;-144.47;100.00;61586.06;4909821;29;20336;-81
2023/01/13 12:56:29;;;;;;;;;;;;;;;-144.47;100.00;61586.06;4915905;28;19923;-82
2023/01/13 12:59:13;;;;;;;;;;;;;;;-144.47;100.00;61586.06;4914473;28;19919;-82
2023/01/13 13:01:39;;;;;;;;;;;;;;;-144.47;100.00;61586.06;4911153;29;19926;-82
2023/01/13 13:04:16;;;;;;;;;;;;;;;-144.47;100.00;61586.06;4915215;29;19971;-81
2023/01/13 13:06:44;;;;;;;;;;;;;;;-144.47;100.00;61586.06;4922570;29;19943;-82
2023/01/13 13:09:26;;;;;;;;;;;;;;;-144.47;100.00;61586.06;4938626;28;19921;-82